Time;durP1;ratioP1;P1;durP2;ratioP2;P2;SDS_P1;SDS_P2;PMS_P1;PMS_P2;Temp;Humidity;BMP_temperature;BMP_pressure;BME280_temperature;BME280_humidity;BME280_pressure;Samples;Min_cycle;Max_cycle;Signal;HPM_P1;HPM_P2
2022/11/22 00:02:12;;;;;;;15.98;8.20;;;6.80;99.90;;;;;;5093604;28;20055;-61
2022/11/22 00:04:37;;;;;;;16.33;7.97;;;6.90;99.90;;;;;;5082100;28;20032;-61
2022/11/22 00:07:03;;;;;;;16.02;7.90;;;6.80;99.90;;;;;;5095919;28;20028;-61
2022/11/22 00:09:28;;;;;;;20.42;7.13;;;6.80;99.90;;;;;;5092673;28;20520;-61
2022/11/22 00:11:54;;;;;;;13.98;6.80;;;6.90;99.90;;;;;;5090054;28;20028;-61
2022/11/22 00:14:19;;;;;;;18.75;6.90;;;6.90;99.90;;;;;;5092817;28;20020;-62
2022/11/22 00:16:45;;;;;;;14.25;5.93;;;6.90;99.90;;;;;;5090070;28;20055;-61
2022/11/22 00:19:10;;;;;;;15.00;6.65;;;6.90;99.90;;;;;;5096624;28;20073;-62
2022/11/22 00:21:36;;;;;;;18.30;6.10;;;6.90;99.90;;;;;;5099106;28;20389;-61
2022/11/22 00:24:02;;;;;;;14.77;6.15;;;6.90;99.90;;;;;;5098556;28;20405;-62
2022/11/22 00:26:27;;;;;;;16.33;6.88;;;6.90;99.90;;;;;;5097910;28;20081;-61
2022/11/22 00:28:53;;;;;;;15.68;8.30;;;7.00;99.90;;;;;;5091129;27;20062;-61
2022/11/22 00:31:18;;;;;;;10.77;5.85;;;6.90;99.90;;;;;;5083106;28;20062;-61
2022/11/22 00:33:44;;;;;;;12.48;6.22;;;7.00;99.90;;;;;;5073306;28;20028;-61
2022/11/22 00:36:09;;;;;;;14.07;5.95;;;7.00;99.90;;;;;;5092417;28;20054;-61
2022/11/22 00:38:35;;;;;;;9.30;5.50;;;7.00;99.90;;;;;;5069155;28;20032;-61
2022/11/22 00:41:00;;;;;;;11.38;6.00;;;7.00;99.90;;;;;;5092469;28;20026;-61
2022/11/22 00:43:26;;;;;;;14.25;5.97;;;7.00;99.90;;;;;;5091593;28;20028;-61
2022/11/22 00:45:51;;;;;;;14.27;6.50;;;7.00;99.90;;;;;;5091896;28;20469;-62
2022/11/22 00:48:17;;;;;;;12.52;6.43;;;7.10;99.90;;;;;;5091990;28;20378;-62
2022/11/22 00:50:42;;;;;;;12.50;6.13;;;7.00;99.90;;;;;;5092247;28;20036;-61
2022/11/22 00:53:08;;;;;;;14.48;6.45;;;7.10;99.90;;;;;;5073754;28;20024;-61
2022/11/22 00:55:34;;;;;;;16.48;6.63;;;7.10;99.90;;;;;;5076688;28;20036;-61
2022/11/22 00:57:59;;;;;;;11.63;5.88;;;7.10;99.90;;;;;;5091715;28;20031;-61
2022/11/22 01:00:25;;;;;;;14.10;5.30;;;7.10;99.90;;;;;;5073651;28;20050;-61
2022/11/22 01:02:50;;;;;;;13.00;6.47;;;7.10;99.90;;;;;;5094575;28;20107;-61
2022/11/22 01:05:16;;;;;;;9.45;5.88;;;7.10;99.90;;;;;;5095062;28;20019;-63
2022/11/22 01:07:43;;;;;;;15.98;6.07;;;7.10;99.90;;;;;;5088889;28;20064;-61
2022/11/22 01:10:09;;;;;;;18.17;6.28;;;7.10;99.90;;;;;;5088926;28;20036;-61
2022/11/22 01:12:35;;;;;;;10.70;5.47;;;7.10;99.90;;;;;;5089567;28;20101;-61
2022/11/22 01:15:01;;;;;;;14.20;6.03;;;7.00;99.90;;;;;;5089022;28;20028;-61
2022/11/22 01:17:27;;;;;;;12.82;6.32;;;7.00;99.90;;;;;;5088716;28;20504;-61
2022/11/22 01:19:52;;;;;;;11.50;6.32;;;7.00;99.90;;;;;;5092463;28;20032;-61
2022/11/22 01:22:18;;;;;;;15.63;6.22;;;7.00;99.90;;;;;;5096468;28;20098;-61
2022/11/22 01:24:43;;;;;;;10.63;5.78;;;7.00;99.90;;;;;;5073407;28;20028;-61
2022/11/22 01:27:09;;;;;;;14.85;6.45;;;7.00;99.90;;;;;;5091127;28;20025;-61
2022/11/22 01:29:34;;;;;;;8.55;5.35;;;7.00;99.90;;;;;;5090675;28;20034;-61
2022/11/22 01:32:00;;;;;;;12.10;6.65;;;7.00;99.90;;;;;;5091927;28;20116;-61
2022/11/22 01:34:25;;;;;;;14.05;5.93;;;6.90;99.90;;;;;;5091566;28;20059;-61
2022/11/22 01:36:51;;;;;;;13.13;6.28;;;6.90;99.90;;;;;;5091454;28;20519;-61
2022/11/22 01:39:17;;;;;;;13.30;6.30;;;6.90;99.90;;;;;;5088707;28;20485;-61
2022/11/22 01:41:43;;;;;;;13.60;6.40;;;6.90;99.90;;;;;;5093688;28;20058;-61
2022/11/22 01:44:30;;;;;;;14.13;6.45;;;6.90;99.90;;;;;;5091371;28;20485;-61
2022/11/22 01:47:08;;;;;;;14.93;6.43;;;6.90;99.90;;;;;;5092415;28;20067;-61
2022/11/22 01:49:45;;;;;;;11.68;5.75;;;6.80;99.90;;;;;;5091009;28;20035;-61
2022/11/22 01:52:20;;;;;;;11.65;5.15;;;6.80;99.90;;;;;;5092312;28;20016;-61
2022/11/22 01:54:55;;;;;;;10.88;5.00;;;6.80;99.90;;;;;;5092483;28;20020;-61
2022/11/22 01:57:24;;;;;;;10.93;5.82;;;6.80;99.90;;;;;;5092637;28;20031;-61
2022/11/22 01:59:58;;;;;;;15.18;5.15;;;6.80;99.90;;;;;;5098059;28;20036;-61
2022/11/22 02:02:24;;;;;;;14.05;4.88;;;6.90;99.90;;;;;;5095921;28;20043;-61
2022/11/22 02:04:51;;;;;;;8.88;4.93;;;6.90;99.90;;;;;;5097813;28;20072;-61
2022/11/22 02:07:26;;;;;;;9.32;4.70;;;6.90;99.90;;;;;;5062214;28;20165;-61
2022/11/22 02:09:52;;;;;;;9.85;4.05;;;7.00;99.90;;;;;;5092964;28;20016;-61
2022/11/22 02:12:22;;;;;;;10.25;3.80;;;7.00;99.90;;;;;;5096603;28;20019;-61
2022/11/22 02:14:48;;;;;;;;;;;7.10;99.90;;;;;;5100917;28;20531;-61
2022/11/22 02:17:13;;;;;;;14.05;4.15;;;7.10;99.90;;;;;;5092041;28;19903;-61
2022/11/22 02:19:42;;;;;;;15.48;3.85;;;7.10;99.90;;;;;;5074397;28;20114;-62
2022/11/22 02:22:28;;;;;;;10.50;3.90;;;7.10;99.90;;;;;;5097839;28;20126;-61
2022/11/22 02:25:00;;;;;;;13.70;3.85;;;7.10;99.90;;;;;;5050576;28;20062;-61
2022/11/22 02:27:26;;;;;;;12.88;3.22;;;7.00;99.90;;;;;;5075733;28;20024;-61
2022/11/22 02:29:52;;;;;;;8.85;3.47;;;7.00;99.90;;;;;;5092877;28;20024;-61
2022/11/22 02:32:17;;;;;;;11.40;3.63;;;7.00;99.90;;;;;;5098628;28;20048;-61
2022/11/22 02:34:47;;;;;;;11.55;3.22;;;7.00;99.90;;;;;;5098136;28;20109;-61
2022/11/22 02:37:16;;;;;;;9.13;3.40;;;7.00;99.90;;;;;;5076336;28;20414;-61
2022/11/22 02:39:43;;;;;;;9.30;2.90;;;7.00;99.90;;;;;;5094144;28;20063;-62
2022/11/22 02:42:09;;;;;;;14.38;3.13;;;7.00;99.90;;;;;;5092177;28;20039;-61
2022/11/22 02:44:35;;;;;;;16.20;3.28;;;6.90;99.90;;;;;;5094651;28;20024;-63
2022/11/22 02:47:01;;;;;;;11.27;3.20;;;6.90;99.90;;;;;;5091595;28;20023;-61
2022/11/22 02:49:26;;;;;;;15.68;2.80;;;6.90;99.90;;;;;;5094795;28;20091;-61
2022/11/22 02:51:52;;;;;;;13.20;3.08;;;6.90;99.90;;;;;;5091211;28;20020;-61
2022/11/22 02:54:18;;;;;;;11.38;2.95;;;6.90;99.90;;;;;;5091766;28;20732;-61
2022/11/22 02:56:43;;;;;;;8.68;2.75;;;6.90;99.90;;;;;;5094509;28;20131;-63
2022/11/22 02:59:09;;;;;;;14.43;3.05;;;6.90;99.90;;;;;;5094376;28;20525;-61
2022/11/22 03:01:35;;;;;;;12.10;2.50;;;6.90;99.90;;;;;;5079413;27;20039;-61
2022/11/22 03:04:00;;;;;;;13.55;2.78;;;6.90;99.90;;;;;;5122981;27;20476;-61
2022/11/22 03:06:26;;;;;;;10.18;2.50;;;6.90;99.90;;;;;;5113625;27;20130;-61
2022/11/22 03:08:51;;;;;;;13.73;2.60;;;6.90;99.90;;;;;;5093918;28;20023;-61
2022/11/22 03:11:17;;;;;;;9.30;2.88;;;6.90;99.90;;;;;;5097170;27;20373;-61
2022/11/22 03:13:42;;;;;;;13.60;3.47;;;6.80;99.90;;;;;;5104156;27;20076;-61
2022/11/22 03:16:08;;;;;;;13.85;2.67;;;6.90;99.90;;;;;;5094539;28;20032;-61
2022/11/22 03:18:35;;;;;;;16.42;2.60;;;6.80;99.90;;;;;;5080016;28;20068;-61
2022/11/22 03:21:06;;;;;;;15.93;3.33;;;6.80;99.90;;;;;;5094518;27;20393;-61
2022/11/22 03:23:31;;;;;;;11.45;1.80;;;6.80;99.90;;;;;;5093785;28;20024;-61
2022/11/22 03:25:57;;;;;;;8.80;2.05;;;6.80;99.90;;;;;;5094764;28;20028;-61
2022/11/22 03:28:23;;;;;;;13.25;2.63;;;6.80;99.90;;;;;;5093439;28;20016;-62
2022/11/22 03:30:48;;;;;;;15.18;2.67;;;6.80;99.90;;;;;;5090730;28;20032;-62
2022/11/22 03:33:14;;;;;;;11.63;2.05;;;6.80;99.90;;;;;;5090597;28;20097;-61
2022/11/22 03:35:39;;;;;;;10.57;2.17;;;6.70;99.90;;;;;;5093423;28;20362;-61
2022/11/22 03:38:06;;;;;;;12.32;2.15;;;6.70;99.90;;;;;;5100490;27;20401;-61
2022/11/22 03:40:32;;;;;;;16.95;2.40;;;6.70;99.90;;;;;;5072050;28;20023;-62
2022/11/22 03:43:00;;;;;;;11.95;1.92;;;6.60;99.90;;;;;;5092050;28;20046;-61
2022/11/22 03:45:26;;;;;;;17.60;2.50;;;6.70;99.90;;;;;;5098183;28;20043;-61
2022/11/22 03:47:51;;;;;;;15.98;3.65;;;6.60;99.90;;;;;;5090631;28;20550;-62
2022/11/22 03:50:17;;;;;;;10.68;2.35;;;6.60;99.90;;;;;;5097245;28;20043;-61
2022/11/22 03:52:42;;;;;;;14.85;2.75;;;6.60;99.90;;;;;;5093170;28;20511;-61
2022/11/22 03:55:08;;;;;;;9.57;2.05;;;6.60;99.90;;;;;;5095824;28;20035;-61
2022/11/22 03:57:33;;;;;;;13.38;2.75;;;6.60;99.90;;;;;;5092986;28;20468;-61
2022/11/22 03:59:59;;;;;;;14.45;3.13;;;6.60;99.90;;;;;;5072877;28;20492;-61
2022/11/22 04:02:24;;;;;;;14.25;2.63;;;6.60;99.90;;;;;;5079395;28;20110;-61
2022/11/22 04:04:50;;;;;;;11.20;1.75;;;6.50;99.90;;;;;;5095373;28;20020;-61
2022/11/22 04:07:15;;;;;;;13.63;2.65;;;6.50;99.90;;;;;;5093933;28;20337;-61
2022/11/22 04:09:41;;;;;;;10.90;1.92;;;6.50;99.90;;;;;;5098159;28;20449;-61
2022/11/22 04:12:06;;;;;;;17.25;3.33;;;6.50;99.90;;;;;;5101004;27;20106;-61
2022/11/22 04:17:39;;;;;;;15.25;3.10;;;6.40;99.90;;;;;;5074455;28;20055;-61
2022/11/22 04:23:17;;;;;;;12.13;2.47;;;6.30;99.90;;;;;;5089999;28;20058;-61
2022/11/22 04:25:45;;;;;;;16.13;2.35;;;6.30;99.90;;;;;;5090661;28;20040;-62
2022/11/22 04:28:13;;;;;;;11.00;1.70;;;6.30;99.90;;;;;;5071573;28;20020;-61
2022/11/22 04:33:24;;;;;;;13.82;2.22;;;6.20;99.90;;;;;;5093126;28;20079;-61
2022/11/22 04:35:50;;;;;;;8.15;1.75;;;6.10;99.90;;;;;;5092395;28;20031;-61
2022/11/22 04:38:17;;;;;;;9.60;2.63;;;6.10;99.90;;;;;;5092504;28;20031;-61
2022/11/22 04:40:43;;;;;;;11.48;1.80;;;6.10;99.90;;;;;;5089441;28;20039;-61
2022/11/22 04:45:59;;;;;;;11.23;1.95;;;6.00;99.90;;;;;;5095199;28;20077;-61
2022/11/22 04:48:24;;;;;;;15.25;2.08;;;6.00;99.90;;;;;;5111775;27;20016;-61
2022/11/22 04:52:52;;;;;;;12.50;2.40;;;6.00;99.90;;;;;;5091974;28;20537;-61
2022/11/22 04:53:43;;;;;;;14.20;2.55;;;5.90;99.90;;;;;;5094460;28;20110;-61
2022/11/22 04:56:08;;;;;;;17.42;2.88;;;5.90;99.90;;;;;;5093698;28;20030;-61
2022/11/22 04:58:33;;;;;;;13.63;2.55;;;5.80;99.90;;;;;;5091838;28;20388;-61
2022/11/22 05:00:59;;;;;;;11.15;1.98;;;5.80;99.90;;;;;;5089271;28;20030;-61
2022/11/22 05:03:24;;;;;;;11.32;2.60;;;5.70;99.90;;;;;;5092530;27;20028;-61
2022/11/22 05:05:50;;;;;;;14.95;2.30;;;5.70;99.90;;;;;;5088756;28;20036;-62
2022/11/22 05:08:15;;;;;;;15.35;2.03;;;5.70;99.90;;;;;;5097213;28;20024;-61
2022/11/22 05:10:56;;;;;;;20.13;2.50;;;5.70;99.90;;;;;;5095341;27;20026;-61
2022/11/22 05:13:37;;;;;;;18.73;2.88;;;5.60;99.90;;;;;;5092023;28;20475;-61
2022/11/22 05:16:04;;;;;;;13.27;2.20;;;5.60;99.90;;;;;;5091904;28;20483;-61
2022/11/22 05:18:30;;;;;;;15.52;1.98;;;5.50;99.90;;;;;;5091995;28;20310;-61
2022/11/22 05:20:57;;;;;;;14.90;3.28;;;5.50;99.90;;;;;;5091748;28;20027;-61
2022/11/22 05:26:08;;;;;;;19.83;3.90;;;5.40;99.90;;;;;;5091685;28;20039;-61
2022/11/22 05:28:36;;;;;;;16.27;2.08;;;5.40;99.90;;;;;;5090111;28;20020;-61
2022/11/22 05:31:13;;;;;;;12.10;3.20;;;5.40;99.90;;;;;;5096254;28;20028;-61
2022/11/22 05:33:40;;;;;;;12.65;2.17;;;5.40;99.90;;;;;;5094790;28;20117;-61
2022/11/22 05:36:07;;;;;;;14.50;2.13;;;5.30;99.90;;;;;;5093694;28;20047;-61
2022/11/22 05:38:36;;;;;;;10.43;2.35;;;5.30;99.90;;;;;;5088642;28;20020;-61
2022/11/22 05:41:03;;;;;;;19.07;2.73;;;5.30;99.90;;;;;;5091874;28;20012;-61
2022/11/22 05:43:29;;;;;;;15.82;2.17;;;5.30;99.90;;;;;;5096500;28;20303;-61
2022/11/22 05:45:55;;;;;;;13.35;2.65;;;5.30;99.90;;;;;;5088538;28;20062;-61
2022/11/22 05:48:20;;;;;;;10.13;1.95;;;5.30;99.90;;;;;;5092200;28;20024;-61
2022/11/22 05:50:46;;;;;;;12.23;2.08;;;5.20;99.90;;;;;;5093459;28;20104;-61
2022/11/22 05:53:11;;;;;;;17.10;2.28;;;5.20;99.90;;;;;;5078936;28;20051;-61
2022/11/22 05:55:37;;;;;;;19.00;2.35;;;5.20;99.90;;;;;;5091508;28;20027;-61
2022/11/22 05:58:02;;;;;;;12.57;1.63;;;5.20;99.90;;;;;;5093204;28;20040;-61
2022/11/22 06:00:28;;;;;;;15.02;2.50;;;5.20;99.90;;;;;;5094925;28;20110;-61
2022/11/22 06:03:00;;;;;;;13.25;2.35;;;5.10;99.90;;;;;;5093090;28;20011;-61
2022/11/22 06:05:26;;;;;;;12.10;1.60;;;5.10;99.90;;;;;;5091512;28;20103;-61
2022/11/22 06:07:52;;;;;;;10.32;1.65;;;5.10;99.90;;;;;;5094219;28;20024;-61
2022/11/22 06:10:18;;;;;;;10.25;2.30;;;5.10;99.90;;;;;;5091931;28;20024;-61
2022/11/22 06:12:44;;;;;;;14.45;3.00;;;5.00;99.90;;;;;;5088404;28;20020;-61
2022/11/22 06:15:09;;;;;;;13.48;2.28;;;5.10;99.90;;;;;;5088485;28;20017;-63
2022/11/22 06:17:35;;;;;;;11.73;2.15;;;5.00;99.90;;;;;;5112979;27;20035;-61
2022/11/22 06:20:01;;;;;;;11.85;2.00;;;5.10;99.90;;;;;;5093773;28;20028;-61
2022/11/22 06:22:26;;;;;;;14.82;2.25;;;5.00;99.90;;;;;;5112362;28;20093;-61
2022/11/22 06:24:52;;;;;;;8.10;1.90;;;5.00;99.90;;;;;;5075804;28;20157;-61
2022/11/22 06:27:17;;;;;;;18.48;2.92;;;5.00;99.90;;;;;;5097048;28;20610;-61
2022/11/22 06:29:43;;;;;;;13.13;2.28;;;5.00;99.90;;;;;;5100978;28;20026;-61
2022/11/22 06:32:08;;;;;;;13.43;2.60;;;4.90;99.90;;;;;;5105167;28;20055;-61
2022/11/22 06:34:34;;;;;;;12.68;3.30;;;5.00;99.90;;;;;;5098264;28;20456;-61
2022/11/22 06:36:59;;;;;;;11.77;2.05;;;4.90;99.90;;;;;;5111808;28;20107;-61
2022/11/22 06:39:25;;;;;;;14.98;2.03;;;4.90;99.90;;;;;;5097245;28;20024;-61
2022/11/22 06:41:50;;;;;;;7.38;1.92;;;4.90;99.90;;;;;;5114815;28;20553;-61
2022/11/22 06:44:16;;;;;;;23.33;2.63;;;4.90;99.90;;;;;;5099591;28;20045;-61
2022/11/22 06:46:41;;;;;;;14.73;2.13;;;4.90;99.90;;;;;;5101825;28;20059;-61
2022/11/22 06:49:07;;;;;;;11.93;2.25;;;4.90;99.90;;;;;;5092466;28;20026;-61
2022/11/22 06:51:32;;;;;;;7.68;1.75;;;4.90;99.90;;;;;;5083447;28;20519;-61
2022/11/22 06:53:58;;;;;;;12.25;1.88;;;4.90;99.90;;;;;;5109515;28;20019;-61
2022/11/22 06:56:27;;;;;;;8.70;1.95;;;4.90;99.90;;;;;;5111409;28;20028;-61
2022/11/22 06:58:53;;;;;;;10.68;2.15;;;4.80;99.90;;;;;;5109504;28;20076;-61
2022/11/22 07:01:25;;;;;;;12.13;2.10;;;4.80;99.90;;;;;;5110006;28;20032;-61
2022/11/22 07:03:56;;;;;;;9.90;1.65;;;4.80;99.90;;;;;;5113539;28;20569;-61
2022/11/22 07:06:22;;;;;;;15.20;1.77;;;4.80;99.90;;;;;;5092092;28;20408;-61
2022/11/22 07:08:48;;;;;;;11.32;2.05;;;4.80;99.90;;;;;;5105268;28;20381;-61
2022/11/22 07:11:19;;;;;;;13.95;2.00;;;4.80;99.90;;;;;;5117489;27;20029;-61
2022/11/22 07:13:46;;;;;;;11.93;2.42;;;4.80;99.90;;;;;;5095199;28;20016;-61
2022/11/22 07:16:15;;;;;;;8.75;1.77;;;4.80;99.90;;;;;;5096561;27;20031;-61
2022/11/22 07:18:40;;;;;;;12.13;2.80;;;4.90;99.90;;;;;;5104862;28;20032;-61
2022/11/22 07:21:14;;;;;;;11.98;2.17;;;4.90;99.90;;;;;;5094320;28;20024;-61
2022/11/22 07:23:41;;;;;;;13.13;2.83;;;5.00;99.90;;;;;;5077669;28;20085;-61
2022/11/22 07:26:07;;;;;;;14.35;2.60;;;5.00;99.90;;;;;;5105321;28;20089;-61
2022/11/22 07:28:33;;;;;;;14.35;2.30;;;5.00;99.90;;;;;;5110975;28;20105;-61
2022/11/22 07:31:00;;;;;;;13.60;1.98;;;5.10;99.90;;;;;;5112144;28;20407;-60
2022/11/22 07:33:25;;;;;;;10.35;2.20;;;5.10;99.90;;;;;;5109119;28;20020;-61
2022/11/22 07:35:51;;;;;;;10.50;1.98;;;5.10;99.90;;;;;;5110858;28;20019;-60
2022/11/22 07:38:16;;;;;;;11.85;2.00;;;5.10;99.90;;;;;;5107662;28;20031;-60
2022/11/22 07:40:42;;;;;;;11.85;2.05;;;5.10;99.90;;;;;;5094208;28;20064;-61
2022/11/22 07:43:07;;;;;;;16.17;3.25;;;5.20;99.90;;;;;;5108447;27;20469;-61
2022/11/22 07:45:33;;;;;;;10.85;1.80;;;5.20;99.90;;;;;;5105488;28;20070;-60
2022/11/22 07:48:00;;;;;;;13.13;2.72;;;5.20;99.90;;;;;;5087075;28;20035;-61
2022/11/22 07:50:25;;;;;;;16.85;2.30;;;5.30;99.90;;;;;;5097426;28;20016;-60
2022/11/22 07:52:58;;;;;;;13.80;2.35;;;5.30;99.90;;;;;;5080992;28;20424;-60
2022/11/22 07:55:25;;;;;;;14.15;2.03;;;5.30;99.90;;;;;;5106042;28;20096;-60
2022/11/22 07:57:56;;;;;;;10.43;2.60;;;5.30;99.90;;;;;;5094009;28;20023;-60
2022/11/22 08:00:22;;;;;;;14.05;2.35;;;5.30;99.90;;;;;;5093764;28;20393;-61
2022/11/22 08:02:47;;;;;;;14.38;2.30;;;5.30;99.90;;;;;;5097063;28;20027;-60
2022/11/22 08:05:13;;;;;;;18.05;3.00;;;5.40;99.90;;;;;;5099585;28;20032;-61
2022/11/22 08:07:38;;;;;;;12.40;2.20;;;5.40;99.90;;;;;;5075693;28;20028;-61
2022/11/22 08:10:04;;;;;;;8.50;1.80;;;5.40;99.90;;;;;;5112546;27;20024;-61
2022/11/22 08:12:30;;;;;;;17.42;2.58;;;5.40;99.90;;;;;;5110270;27;20427;-61
2022/11/22 08:14:55;;;;;;;12.00;2.35;;;5.40;99.90;;;;;;5075277;28;20115;-61
2022/11/22 08:17:21;;;;;;;13.68;2.00;;;5.40;99.90;;;;;;5093341;28;20032;-61
2022/11/22 08:19:52;;;;;;;10.52;2.45;;;5.40;99.90;;;;;;5098008;28;20039;-61
2022/11/22 08:22:17;;;;;;;14.57;3.03;;;5.40;99.90;;;;;;5110014;28;20480;-61
2022/11/22 08:24:43;;;;;;;13.30;2.10;;;5.50;99.90;;;;;;5110156;28;20038;-61
2022/11/22 08:27:08;;;;;;;8.07;1.92;;;5.50;99.90;;;;;;5113510;28;20035;-61
2022/11/22 08:29:34;;;;;;;11.25;1.95;;;5.50;99.90;;;;;;5108135;28;20016;-61
2022/11/22 08:31:59;;;;;;;8.23;3.38;;;5.50;99.90;;;;;;5092473;28;20454;-61
2022/11/22 08:34:25;;;;;;;11.48;3.03;;;5.50;99.90;;;;;;5093055;28;20477;-61
2022/11/22 08:36:50;;;;;;;10.75;2.13;;;5.60;99.90;;;;;;5093092;28;20028;-61
2022/11/22 08:39:16;;;;;;;11.23;1.90;;;5.70;99.90;;;;;;5093054;28;20559;-61
2022/11/22 08:41:41;;;;;;;9.07;2.15;;;5.70;99.90;;;;;;5100163;28;20024;-61
2022/11/22 08:44:07;;;;;;;11.57;2.08;;;5.70;99.90;;;;;;5092987;28;20028;-61
2022/11/22 08:46:32;;;;;;;9.43;1.95;;;5.70;99.90;;;;;;5098627;28;20511;-61
2022/11/22 08:48:58;;;;;;;12.40;2.45;;;5.70;99.90;;;;;;5106953;28;20053;-60
2022/11/22 08:51:23;;;;;;;8.60;1.92;;;5.70;99.90;;;;;;5081330;28;20034;-60
2022/11/22 08:53:49;;;;;;;10.85;2.10;;;5.80;99.90;;;;;;5092790;28;20035;-61
2022/11/22 08:56:15;;;;;;;12.95;1.88;;;5.80;99.90;;;;;;5105292;28;20446;-61
2022/11/22 08:58:41;;;;;;;9.00;1.75;;;5.90;99.90;;;;;;5089226;28;20032;-61
2022/11/22 09:01:10;;;;;;;9.43;2.00;;;5.90;99.90;;;;;;5098778;28;20073;-61
2022/11/22 09:03:36;;;;;;;14.65;2.35;;;5.90;99.90;;;;;;5093565;28;20038;-61
2022/11/22 09:06:13;;;;;;;10.20;2.00;;;5.90;99.90;;;;;;5097378;28;20388;-61
2022/11/22 09:08:39;;;;;;;14.88;2.30;;;6.00;99.90;;;;;;5105540;27;20084;-61
2022/11/22 09:11:08;;;;;;;10.95;1.95;;;6.00;99.90;;;;;;5108095;27;20051;-61
2022/11/22 09:13:34;;;;;;;10.27;2.22;;;6.00;99.90;;;;;;5096810;28;20020;-60
2022/11/22 09:16:04;;;;;;;14.48;2.33;;;6.10;99.90;;;;;;5092552;28;20024;-60
2022/11/22 09:18:30;;;;;;;12.90;2.45;;;6.10;99.90;;;;;;5095492;28;20510;-61
2022/11/22 09:20:58;;;;;;;7.90;1.65;;;6.10;99.90;;;;;;5108270;28;20027;-61
2022/11/22 09:23:23;;;;;;;14.20;2.67;;;6.10;99.90;;;;;;5108741;28;20068;-61
2022/11/22 09:26:14;;;;;;;10.10;2.30;;;6.10;99.90;;;;;;5104377;28;20035;-61
2022/11/22 09:28:40;;;;;;;9.15;1.65;;;6.20;99.90;;;;;;5110069;28;20097;-61
2022/11/22 09:31:17;;;;;;;14.43;2.25;;;6.20;99.90;;;;;;5107729;28;20059;-60
2022/11/22 09:33:44;;;;;;;14.57;2.22;;;6.20;99.90;;;;;;5108825;28;20521;-61
2022/11/22 09:36:18;;;;;;;16.45;1.88;;;6.30;99.90;;;;;;5105619;28;20028;-61
2022/11/22 09:38:43;;;;;;;12.70;2.25;;;6.50;99.90;;;;;;5110180;28;20254;-61
2022/11/22 09:41:14;;;;;;;14.88;2.72;;;6.60;99.90;;;;;;5107742;28;20539;-61
2022/11/22 09:43:40;;;;;;;10.07;2.38;;;6.70;99.90;;;;;;5097350;28;20008;-61
2022/11/22 09:46:27;;;;;;;7.28;1.65;;;6.70;99.90;;;;;;5093295;28;20393;-61
2022/11/22 09:49:01;;;;;;;12.15;2.03;;;6.70;99.90;;;;;;5093171;28;20013;-61
2022/11/22 09:51:32;;;;;;;14.20;2.17;;;6.90;99.90;;;;;;5099700;28;20026;-61
2022/11/22 09:54:09;;;;;;;9.13;2.38;;;6.80;99.90;;;;;;5103302;28;20420;-61
2022/11/22 09:56:36;;;;;;;8.38;1.98;;;6.80;99.90;;;;;;5105379;28;20126;-61
2022/11/22 09:59:11;;;;;;;11.75;2.20;;;6.70;99.90;;;;;;5104614;28;20034;-61
2022/11/22 10:01:44;;;;;;;8.43;2.17;;;6.70;99.90;;;;;;5106772;28;20028;-61
2022/11/22 10:04:27;;;;;;;13.07;2.17;;;6.60;99.90;;;;;;5102652;28;20488;-61
2022/11/22 10:07:04;;;;;;;8.25;1.90;;;6.70;99.90;;;;;;5102272;28;20489;-61
2022/11/22 10:09:59;;;;;;;9.32;1.70;;;6.70;99.90;;;;;;5092706;28;20513;-61
2022/11/22 10:13:05;;;;;;;11.32;1.98;;;6.80;99.90;;;;;;5095047;28;20024;-61
2022/11/22 10:15:43;;;;;;;11.43;2.13;;;6.90;99.90;;;;;;5095584;28;20099;-61
2022/11/22 10:18:33;;;;;;;15.35;2.33;;;6.90;99.90;;;;;;5100149;28;20384;-61
2022/11/22 10:20:58;;;;;;;;;;;6.90;99.90;;;;;;5101205;28;20052;-61
2022/11/22 10:23:25;;;;;;;7.82;1.58;;;6.90;99.90;;;;;;5107069;28;19962;-61
2022/11/22 10:25:57;;;;;;;13.02;2.75;;;6.90;99.90;;;;;;5109792;28;20037;-61
2022/11/22 10:28:35;;;;;;;11.27;1.85;;;7.00;99.90;;;;;;5116057;28;20436;-61
2022/11/22 10:31:26;;;;;;;7.28;1.88;;;7.00;99.90;;;;;;5107878;28;20016;-61
2022/11/22 10:33:54;;;;;;;10.80;1.98;;;7.10;99.90;;;;;;5106249;28;20035;-61
2022/11/22 10:36:44;;;;;;;7.78;1.60;;;7.10;99.90;;;;;;5087676;28;20020;-61
2022/11/22 10:39:18;;;;;;;12.07;2.00;;;7.10;99.90;;;;;;5098281;28;20080;-61
2022/11/22 10:41:59;;;;;;;13.15;2.40;;;7.10;99.90;;;;;;5101511;28;20035;-61
2022/11/22 10:44:36;;;;;;;6.70;1.48;;;7.10;99.90;;;;;;5101510;28;20023;-60
2022/11/22 10:47:15;;;;;;;6.93;2.05;;;7.10;99.90;;;;;;5108730;28;20425;-60
2022/11/22 10:49:49;;;;;;;6.03;1.83;;;7.20;99.90;;;;;;5110758;28;20035;-60
2022/11/22 10:52:18;;;;;;;10.05;1.95;;;7.20;99.90;;;;;;5099716;28;20056;-60
2022/11/22 10:55:08;;;;;;;9.65;1.65;;;7.20;99.90;;;;;;5114019;28;20059;-60
2022/11/22 10:57:46;;;;;;;8.25;1.63;;;7.30;99.90;;;;;;5094752;28;20086;-60
2022/11/22 11:00:20;;;;;;;7.65;1.50;;;7.30;99.90;;;;;;5112535;28;20015;-60
2022/11/22 11:03:00;;;;;;;4.07;1.45;;;7.20;99.90;;;;;;5113308;28;20031;-59
2022/11/22 11:05:45;;;;;;;5.50;1.10;;;7.30;99.90;;;;;;5094460;28;20032;-60
2022/11/22 11:08:15;;;;;;;6.05;0.95;;;7.30;99.90;;;;;;5094698;28;20397;-60
2022/11/22 11:10:44;;;;;;;4.28;1.20;;;7.30;99.90;;;;;;5115488;27;20024;-60
2022/11/22 11:13:27;;;;;;;5.95;1.00;;;7.20;99.90;;;;;;5091187;28;20024;-60
2022/11/22 11:15:55;;;;;;;4.45;1.45;;;7.20;99.90;;;;;;5103203;28;20480;-60
2022/11/22 11:18:35;;;;;;;5.00;1.10;;;7.20;99.90;;;;;;5107306;28;20099;-60
2022/11/22 11:21:00;;;;;;;6.50;1.50;;;7.30;99.90;;;;;;5095866;28;20032;-60
2022/11/22 11:23:26;;;;;;;7.43;2.13;;;7.30;99.90;;;;;;5098209;28;20024;-60
2022/11/22 11:25:51;;;;;;;9.55;1.65;;;7.30;99.90;;;;;;5104144;28;20030;-60
2022/11/22 11:28:27;;;;;;;6.35;1.77;;;7.30;99.90;;;;;;5096931;28;20028;-60
2022/11/22 11:31:00;;;;;;;4.43;1.35;;;7.30;99.90;;;;;;5100634;28;20380;-60
2022/11/22 11:33:28;;;;;;;4.35;0.90;;;7.40;99.90;;;;;;5103173;28;20040;-60
2022/11/22 11:36:05;;;;;;;6.72;1.35;;;7.40;99.90;;;;;;5096732;28;20039;-60
2022/11/22 11:38:36;;;;;;;4.47;1.10;;;7.50;99.90;;;;;;5082737;28;20034;-60
2022/11/22 11:41:35;;;;;;;2.80;0.75;;;7.80;99.90;;;;;;5080946;28;20095;-60
2022/11/22 11:44:03;;;;;;;3.42;0.70;;;7.90;99.90;;;;;;5059678;28;20028;-60
2022/11/22 11:46:40;;;;;;;2.50;0.80;;;7.90;99.90;;;;;;5093890;28;20034;-60
2022/11/22 11:49:15;;;;;;;3.92;1.02;;;8.00;99.90;;;;;;5094485;28;20496;-60
2022/11/22 11:51:47;;;;;;;3.42;0.80;;;8.00;99.90;;;;;;5112174;28;20027;-61
2022/11/22 11:54:18;;;;;;;2.15;0.50;;;7.90;99.90;;;;;;5112315;28;20020;-60
2022/11/22 11:56:54;;;;;;;2.92;0.60;;;7.90;99.90;;;;;;5098516;28;20024;-60
2022/11/22 11:59:49;;;;;;;5.85;0.73;;;7.90;99.90;;;;;;5114203;28;20039;-60
2022/11/22 12:02:41;;;;;;;3.72;0.50;;;7.90;99.90;;;;;;5083690;28;20043;-60
2022/11/22 12:05:25;;;;;;;4.55;0.75;;;7.90;99.90;;;;;;5110575;28;20362;-60
2022/11/22 12:07:51;;;;;;;2.03;0.60;;;7.90;99.90;;;;;;5109002;28;20024;-60
2022/11/22 12:10:35;;;;;;;1.80;0.60;;;7.90;99.90;;;;;;5104655;27;20030;-60
2022/11/22 12:13:26;;;;;;;11.43;0.80;;;7.90;99.90;;;;;;5104687;27;20384;-60
2022/11/22 12:16:28;;;;;;;2.13;0.70;;;7.90;99.90;;;;;;5114589;27;20015;-60
2022/11/22 12:19:24;;;;;;;1.50;0.55;;;7.90;99.90;;;;;;5109607;28;20103;-60
2022/11/22 12:22:08;;;;;;;2.55;0.70;;;7.90;99.90;;;;;;5110398;28;20108;-61
2022/11/22 12:24:44;;;;;;;3.75;0.70;;;7.90;99.90;;;;;;5101068;28;20028;-60
2022/11/22 12:27:10;;;;;;;2.47;0.57;;;7.90;99.90;;;;;;5093470;28;20055;-60
2022/11/22 12:29:39;;;;;;;3.55;0.63;;;7.90;99.90;;;;;;5097576;28;20442;-60
2022/11/22 12:32:19;;;;;;;1.23;0.47;;;7.80;99.90;;;;;;5096346;28;20130;-60
2022/11/22 12:35:09;;;;;;;2.65;0.60;;;7.80;99.90;;;;;;5098535;28;20023;-60
2022/11/22 12:37:38;;;;;;;;;;;7.80;99.90;;;;;;5103560;28;20024;-60
2022/11/22 12:40:21;;;;;;;1.52;0.47;;;7.80;99.90;;;;;;5107904;28;19908;-60
2022/11/22 12:42:53;;;;;;;3.58;0.95;;;7.80;99.90;;;;;;5074945;28;20054;-60
2022/11/22 12:45:26;;;;;;;2.92;1.25;;;7.80;99.90;;;;;;5106302;28;20775;-60
2022/11/22 12:47:52;;;;;;;2.00;0.50;;;7.80;99.90;;;;;;5109951;27;20038;-60
2022/11/22 12:50:28;;;;;;;2.25;0.40;;;7.80;99.90;;;;;;5097745;28;20103;-60
2022/11/22 12:53:19;;;;;;;1.02;0.30;;;7.90;99.90;;;;;;5092468;28;20016;-60
2022/11/22 12:55:53;;;;;;;1.38;0.40;;;7.90;99.90;;;;;;5093405;28;20118;-60
2022/11/22 12:58:26;;;;;;;1.73;0.68;;;7.90;99.90;;;;;;5107320;28;20046;-60
2022/11/22 13:01:00;;;;;;;1.85;0.50;;;7.90;99.90;;;;;;5112785;28;20024;-60
2022/11/22 13:03:32;;;;;;;1.77;0.45;;;7.90;99.90;;;;;;5095431;28;20381;-60
2022/11/22 13:05:59;;;;;;;1.67;0.75;;;8.00;99.90;;;;;;5092780;28;20050;-60
2022/11/22 13:08:49;;;;;;;1.35;0.40;;;8.00;99.90;;;;;;5092703;28;20381;-60
2022/11/22 13:11:43;;;;;;;1.25;0.40;;;8.00;99.90;;;;;;5115918;27;20019;-60
2022/11/22 13:14:16;;;;;;;1.45;0.40;;;8.00;99.90;;;;;;5078672;28;20039;-60
2022/11/22 13:16:42;;;;;;;3.08;0.52;;;8.10;99.90;;;;;;5106240;28;20028;-60
2022/11/22 13:19:13;;;;;;;1.65;0.40;;;8.10;99.90;;;;;;5095544;28;20032;-60